sensor_id;sensor_type;location;lat;lon;timestamp;pressure;altitude;pressure_sealevel;temperature;humidity
84055;BME280;74141;51.504;7.122;2024-01-06T00:02:16;99745.84;;;6.64;98.76
84055;BME280;74141;51.504;7.122;2024-01-06T00:04:41;99756.31;;;6.64;99.19
84055;BME280;74141;51.504;7.122;2024-01-06T00:07:07;99756.44;;;6.61;98.67
84055;BME280;74141;51.504;7.122;2024-01-06T00:09:32;99764.28;;;6.61;98.93
84055;BME280;74141;51.504;7.122;2024-01-06T00:11:57;99765.19;;;6.60;98.85
84055;BME280;74141;51.504;7.122;2024-01-06T00:14:23;99751.44;;;6.55;98.63
84055;BME280;74141;51.504;7.122;2024-01-06T00:16:49;99758.97;;;6.62;98.61
84055;BME280;74141;51.504;7.122;2024-01-06T00:19:14;99753.88;;;6.59;98.36
84055;BME280;74141;51.504;7.122;2024-01-06T00:21:39;99768.69;;;6.59;98.16
84055;BME280;74141;51.504;7.122;2024-01-06T00:24:05;99764.41;;;6.58;98.71
84055;BME280;74141;51.504;7.122;2024-01-06T00:26:30;99768.69;;;6.59;98.46
84055;BME280;74141;51.504;7.122;2024-01-06T00:28:55;99772.13;;;6.61;98.26
84055;BME280;74141;51.504;7.122;2024-01-06T00:31:21;99765.09;;;6.63;98.40
84055;BME280;74141;51.504;7.122;2024-01-06T00:33:46;99776.44;;;6.62;98.91
84055;BME280;74141;51.504;7.122;2024-01-06T00:36:12;99778.28;;;6.60;98.53
84055;BME280;74141;51.504;7.122;2024-01-06T00:38:37;99777.41;;;6.59;98.47
84055;BME280;74141;51.504;7.122;2024-01-06T00:41:02;99783.41;;;6.63;98.22
84055;BME280;74141;51.504;7.122;2024-01-06T00:43:28;99780.72;;;6.64;98.46
84055;BME280;74141;51.504;7.122;2024-01-06T00:45:53;99794.63;;;6.65;98.23
84055;BME280;74141;51.504;7.122;2024-01-06T00:48:18;99796.34;;;6.66;98.04
84055;BME280;74141;51.504;7.122;2024-01-06T00:50:44;99800.63;;;6.68;98.19
84055;BME280;74141;51.504;7.122;2024-01-06T00:53:09;99800.56;;;6.70;98.77
84055;BME280;74141;51.504;7.122;2024-01-06T00:55:34;99797.38;;;6.62;98.72
84055;BME280;74141;51.504;7.122;2024-01-06T00:58:00;99806.94;;;6.63;98.93
84055;BME280;74141;51.504;7.122;2024-01-06T01:00:25;99803.53;;;6.61;98.59
84055;BME280;74141;51.504;7.122;2024-01-06T01:02:52;99805.47;;;6.56;99.23
84055;BME280;74141;51.504;7.122;2024-01-06T01:05:18;99801.09;;;6.56;99.16
84055;BME280;74141;51.504;7.122;2024-01-06T01:07:43;99807.13;;;6.58;99.42
84055;BME280;74141;51.504;7.122;2024-01-06T01:10:09;99804.41;;;6.61;99.24
84055;BME280;74141;51.504;7.122;2024-01-06T01:12:35;99804.44;;;6.60;99.47
84055;BME280;74141;51.504;7.122;2024-01-06T01:15:00;99807.06;;;6.60;99.51
84055;BME280;74141;51.504;7.122;2024-01-06T01:17:25;99804.50;;;6.58;99.51
84055;BME280;74141;51.504;7.122;2024-01-06T01:19:50;99802.94;;;6.53;99.59
84055;BME280;74141;51.504;7.122;2024-01-06T01:22:16;99811.66;;;6.53;99.67
84055;BME280;74141;51.504;7.122;2024-01-06T01:24:42;99809.09;;;6.52;99.56
84055;BME280;74141;51.504;7.122;2024-01-06T01:27:07;99815.16;;;6.54;99.34
84055;BME280;74141;51.504;7.122;2024-01-06T01:29:33;99809.09;;;6.52;99.85
84055;BME280;74141;51.504;7.122;2024-01-06T01:31:58;99819.63;;;6.50;99.74
84055;BME280;74141;51.504;7.122;2024-01-06T01:34:23;99818.00;;;6.48;100.00
84055;BME280;74141;51.504;7.122;2024-01-06T01:36:49;99822.47;;;6.44;100.00
84055;BME280;74141;51.504;7.122;2024-01-06T01:39:15;99828.63;;;6.43;100.00
84055;BME280;74141;51.504;7.122;2024-01-06T01:41:40;99830.38;;;6.43;99.99
84055;BME280;74141;51.504;7.122;2024-01-06T01:44:06;99836.59;;;6.40;100.00
84055;BME280;74141;51.504;7.122;2024-01-06T01:46:32;99835.59;;;6.43;100.00
84055;BME280;74141;51.504;7.122;2024-01-06T01:49:00;99849.72;;;6.39;100.00
84055;BME280;74141;51.504;7.122;2024-01-06T01:51:28;99845.44;;;6.36;100.00
84055;BME280;74141;51.504;7.122;2024-01-06T01:53:55;99846.41;;;6.34;100.00
84055;BME280;74141;51.504;7.122;2024-01-06T01:56:21;99848.97;;;6.35;100.00
84055;BME280;74141;51.504;7.122;2024-01-06T01:58:47;99845.31;;;6.39;100.00
84055;BME280;74141;51.504;7.122;2024-01-06T02:01:13;99843.56;;;6.40;100.00
84055;BME280;74141;51.504;7.122;2024-01-06T02:03:41;99842.53;;;6.44;100.00
84055;BME280;74141;51.504;7.122;2024-01-06T02:06:12;99852.28;;;6.40;100.00
84055;BME280;74141;51.504;7.122;2024-01-06T02:08:38;99845.44;;;6.36;100.00
84055;BME280;74141;51.504;7.122;2024-01-06T02:11:13;99852.38;;;6.37;100.00
84055;BME280;74141;51.504;7.122;2024-01-06T02:13:39;99856.75;;;6.37;100.00
84055;BME280;74141;51.504;7.122;2024-01-06T02:16:13;99856.88;;;6.34;100.00
84055;BME280;74141;51.504;7.122;2024-01-06T02:18:38;99858.72;;;6.32;100.00
84055;BME280;74141;51.504;7.122;2024-01-06T02:21:13;99863.78;;;6.35;100.00
84055;BME280;74141;51.504;7.122;2024-01-06T02:23:38;99864.78;;;6.32;100.00
84055;BME280;74141;51.504;7.122;2024-01-06T02:26:13;99869.94;;;6.34;100.00
84055;BME280;74141;51.504;7.122;2024-01-06T02:28:40;99868.31;;;6.31;100.00
84055;BME280;74141;51.504;7.122;2024-01-06T02:31:12;99873.38;;;6.36;100.00
84055;BME280;74141;51.504;7.122;2024-01-06T02:33:37;99851.13;;;6.24;100.00
84055;BME280;74141;51.504;7.122;2024-01-06T02:36:12;99880.31;;;6.37;100.00
84055;BME280;74141;51.504;7.122;2024-01-06T02:38:37;99880.31;;;6.37;100.00
84055;BME280;74141;51.504;7.122;2024-01-06T02:41:12;99889.84;;;6.38;100.00
84055;BME280;74141;51.504;7.122;2024-01-06T02:43:37;99890.72;;;6.38;100.00
84055;BME280;74141;51.504;7.122;2024-01-06T02:46:14;99896.00;;;6.37;100.00
84055;BME280;74141;51.504;7.122;2024-01-06T02:48:39;99894.13;;;6.40;100.00
84055;BME280;74141;51.504;7.122;2024-01-06T02:51:14;99894.13;;;6.40;100.00
84055;BME280;74141;51.504;7.122;2024-01-06T02:53:39;99900.19;;;6.41;100.00
84055;BME280;74141;51.504;7.122;2024-01-06T02:56:14;99911.53;;;6.41;99.94
84055;BME280;74141;51.504;7.122;2024-01-06T02:58:39;99909.94;;;6.37;100.00
84055;BME280;74141;51.504;7.122;2024-01-06T03:01:04;99920.25;;;6.42;100.00
84055;BME280;74141;51.504;7.122;2024-01-06T03:03:30;99909.06;;;6.37;99.40
84055;BME280;74141;51.504;7.122;2024-01-06T03:05:55;99926.56;;;6.35;98.23
84055;BME280;74141;51.504;7.122;2024-01-06T03:08:20;99932.88;;;6.29;98.46
84055;BME280;74141;51.504;7.122;2024-01-06T03:10:48;99940.94;;;6.23;99.02
84055;BME280;74141;51.504;7.122;2024-01-06T03:13:14;99937.59;;;6.19;98.83
84055;BME280;74141;51.504;7.122;2024-01-06T03:15:39;99936.06;;;6.12;98.03
84055;BME280;74141;51.504;7.122;2024-01-06T03:18:04;99937.91;;;6.10;97.63
84055;BME280;74141;51.504;7.122;2024-01-06T03:20:29;99945.03;;;6.05;97.74
84055;BME280;74141;51.504;7.122;2024-01-06T03:22:55;99933.03;;;6.00;97.52
84055;BME280;74141;51.504;7.122;2024-01-06T03:25:20;99934.88;;;5.96;97.46
84055;BME280;74141;51.504;7.122;2024-01-06T03:27:45;99916.47;;;5.73;97.30
84055;BME280;74141;51.504;7.122;2024-01-06T03:30:11;99945.63;;;5.87;97.43
84055;BME280;74141;51.504;7.122;2024-01-06T03:32:37;99936.19;;;5.83;97.30
84055;BME280;74141;51.504;7.122;2024-01-06T03:35:02;99940.59;;;5.81;97.34
84055;BME280;74141;51.504;7.122;2024-01-06T03:37:27;99952.88;;;5.79;97.28
84055;BME280;74141;51.504;7.122;2024-01-06T03:39:53;99950.19;;;5.81;97.08
84055;BME280;74141;51.504;7.122;2024-01-06T03:42:18;99958.09;;;5.79;96.90
84055;BME280;74141;51.504;7.122;2024-01-06T03:44:43;99968.63;;;5.76;96.86
84055;BME280;74141;51.504;7.122;2024-01-06T03:47:08;99961.84;;;5.71;96.33
84055;BME280;74141;51.504;7.122;2024-01-06T03:49:34;99978.41;;;5.70;96.34
84055;BME280;74141;51.504;7.122;2024-01-06T03:51:59;99978.56;;;5.65;96.36
84055;BME280;74141;51.504;7.122;2024-01-06T03:54:24;99980.38;;;5.63;95.75
84055;BME280;74141;51.504;7.122;2024-01-06T03:56:49;99979.56;;;5.61;96.12
84055;BME280;74141;51.504;7.122;2024-01-06T03:59:15;99988.41;;;5.57;95.33
84055;BME280;74141;51.504;7.122;2024-01-06T04:01:40;99992.00;;;5.53;95.48
84055;BME280;74141;51.504;7.122;2024-01-06T04:04:05;99992.91;;;5.52;94.58
84055;BME280;74141;51.504;7.122;2024-01-06T04:06:31;99963.03;;;5.33;94.19
84055;BME280;74141;51.504;7.122;2024-01-06T04:08:57;99988.69;;;5.48;94.66
84055;BME280;74141;51.504;7.122;2024-01-06T04:11:22;99981.19;;;5.38;94.42
84055;BME280;74141;51.504;7.122;2024-01-06T04:13:48;99996.66;;;5.44;94.49
84055;BME280;74141;51.504;7.122;2024-01-06T04:16:13;99998.47;;;5.42;95.04
84055;BME280;74141;51.504;7.122;2024-01-06T04:18:38;99994.16;;;5.41;94.34
84055;BME280;74141;51.504;7.122;2024-01-06T04:21:04;99999.41;;;5.39;95.23
84055;BME280;74141;51.504;7.122;2024-01-06T04:23:30;99999.38;;;5.41;95.73
84055;BME280;74141;51.504;7.122;2024-01-06T04:25:55;100002.00;;;5.41;95.75
84055;BME280;74141;51.504;7.122;2024-01-06T04:28:20;100004.59;;;5.41;95.35
84055;BME280;74141;51.504;7.122;2024-01-06T04:30:46;100011.66;;;5.37;94.92
84055;BME280;74141;51.504;7.122;2024-01-06T04:33:11;100007.34;;;5.36;95.37
84055;BME280;74141;51.504;7.122;2024-01-06T04:35:36;100003.81;;;5.37;95.44
84055;BME280;74141;51.504;7.122;2024-01-06T04:38:02;100020.44;;;5.35;95.75
84055;BME280;74141;51.504;7.122;2024-01-06T04:40:27;100002.44;;;5.26;95.82
84055;BME280;74141;51.504;7.122;2024-01-06T04:42:52;100011.09;;;5.28;95.73
84055;BME280;74141;51.504;7.122;2024-01-06T04:45:18;100011.94;;;5.28;95.65
84055;BME280;74141;51.504;7.122;2024-01-06T04:47:44;100008.44;;;5.29;94.41
84055;BME280;74141;51.504;7.122;2024-01-06T04:50:10;100015.53;;;5.24;95.03
84055;BME280;74141;51.504;7.122;2024-01-06T04:52:35;100020.66;;;5.27;94.72
84055;BME280;74141;51.504;7.122;2024-01-06T04:55:00;100024.28;;;5.23;95.37
84055;BME280;74141;51.504;7.122;2024-01-06T04:57:27;100019.97;;;5.21;95.26
84055;BME280;74141;51.504;7.122;2024-01-06T04:59:52;100023.50;;;5.20;95.57
84055;BME280;74141;51.504;7.122;2024-01-06T05:02:17;100025.97;;;5.24;94.28
84055;BME280;74141;51.504;7.122;2024-01-06T05:04:43;100025.16;;;5.22;94.50
84055;BME280;74141;51.504;7.122;2024-01-06T05:07:08;100027.03;;;5.19;94.67
84055;BME280;74141;51.504;7.122;2024-01-06T05:09:33;100024.44;;;5.17;94.94
84055;BME280;74141;51.504;7.122;2024-01-06T05:11:58;100036.69;;;5.15;94.59
84055;BME280;74141;51.504;7.122;2024-01-06T05:14:24;100035.06;;;5.11;94.76
84055;BME280;74141;51.504;7.122;2024-01-06T05:16:49;100043.81;;;5.10;95.04
84055;BME280;74141;51.504;7.122;2024-01-06T05:19:14;100041.41;;;5.03;95.00
84055;BME280;74141;51.504;7.122;2024-01-06T05:21:45;100040.47;;;5.05;95.12
84055;BME280;74141;51.504;7.122;2024-01-06T05:24:11;100047.38;;;5.06;95.37
84055;BME280;74141;51.504;7.122;2024-01-06T05:26:36;100058.72;;;5.05;95.55
84055;BME280;74141;51.504;7.122;2024-01-06T05:29:01;100047.47;;;5.03;95.03
84055;BME280;74141;51.504;7.122;2024-01-06T05:31:28;100057.13;;;5.01;95.20
84055;BME280;74141;51.504;7.122;2024-01-06T05:33:53;100058.16;;;4.94;95.39
84055;BME280;74141;51.504;7.122;2024-01-06T05:36:19;100064.44;;;4.87;95.77
84055;BME280;74141;51.504;7.122;2024-01-06T05:38:45;100058.44;;;4.84;95.91
84055;BME280;74141;51.504;7.122;2024-01-06T05:41:10;100060.25;;;4.82;96.23
84055;BME280;74141;51.504;7.122;2024-01-06T05:43:36;100060.31;;;4.80;96.56
84055;BME280;74141;51.504;7.122;2024-01-06T05:46:01;100067.31;;;4.78;96.53
84055;BME280;74141;51.504;7.122;2024-01-06T05:48:26;100065.59;;;4.77;96.46
84055;BME280;74141;51.504;7.122;2024-01-06T05:50:51;100071.72;;;4.76;96.69
84055;BME280;74141;51.504;7.122;2024-01-06T05:53:17;100073.44;;;4.77;97.07
84055;BME280;74141;51.504;7.122;2024-01-06T05:55:43;100069.28;;;4.70;96.27
84055;BME280;74141;51.504;7.122;2024-01-06T05:58:09;100082.97;;;4.78;96.69
84055;BME280;74141;51.504;7.122;2024-01-06T06:00:34;100082.88;;;4.81;96.59
84055;BME280;74141;51.504;7.122;2024-01-06T06:02:59;100091.53;;;4.83;95.96
84055;BME280;74141;51.504;7.122;2024-01-06T06:05:24;100091.47;;;4.86;95.19
84055;BME280;74141;51.504;7.122;2024-01-06T06:07:50;100093.97;;;4.89;95.01
84055;BME280;74141;51.504;7.122;2024-01-06T06:10:15;100094.66;;;4.96;95.12
84055;BME280;74141;51.504;7.122;2024-01-06T06:12:46;100096.59;;;4.89;94.58
84055;BME280;74141;51.504;7.122;2024-01-06T06:15:12;100099.25;;;4.88;95.45
84055;BME280;74141;51.504;7.122;2024-01-06T06:17:39;100096.84;;;4.80;95.00
84055;BME280;74141;51.504;7.122;2024-01-06T06:20:05;100108.25;;;4.76;96.11
84055;BME280;74141;51.504;7.122;2024-01-06T06:22:32;100111.03;;;4.70;95.84
84055;BME280;74141;51.504;7.122;2024-01-06T06:24:58;100121.56;;;4.66;96.02
84055;BME280;74141;51.504;7.122;2024-01-06T06:27:24;100126.00;;;4.62;95.51
84055;BME280;74141;51.504;7.122;2024-01-06T06:29:49;100132.19;;;4.58;96.08
84055;BME280;74141;51.504;7.122;2024-01-06T06:32:14;100132.34;;;4.52;96.11
84055;BME280;74141;51.504;7.122;2024-01-06T06:34:39;100138.47;;;4.51;96.13
84055;BME280;74141;51.504;7.122;2024-01-06T06:37:05;100146.28;;;4.51;95.91
84055;BME280;74141;51.504;7.122;2024-01-06T06:39:31;100139.47;;;4.44;96.25
84055;BME280;74141;51.504;7.122;2024-01-06T06:41:57;100162.78;;;4.52;96.89
84055;BME280;74141;51.504;7.122;2024-01-06T06:44:22;100167.97;;;4.52;96.51
84055;BME280;74141;51.504;7.122;2024-01-06T06:46:48;100167.03;;;4.54;96.43
84055;BME280;74141;51.504;7.122;2024-01-06T06:49:14;100167.94;;;4.53;96.25
84055;BME280;74141;51.504;7.122;2024-01-06T06:51:39;100163.72;;;4.49;96.64
84055;BME280;74141;51.504;7.122;2024-01-06T06:54:11;100172.50;;;4.45;96.57
84055;BME280;74141;51.504;7.122;2024-01-06T06:56:37;100169.06;;;4.43;96.43
84055;BME280;74141;51.504;7.122;2024-01-06T06:59:03;100176.81;;;4.46;96.36
84055;BME280;74141;51.504;7.122;2024-01-06T07:01:28;100183.84;;;4.43;95.94
84055;BME280;74141;51.504;7.122;2024-01-06T07:03:53;100190.91;;;4.39;96.45
84055;BME280;74141;51.504;7.122;2024-01-06T07:06:19;100199.56;;;4.40;96.11
84055;BME280;74141;51.504;7.122;2024-01-06T07:08:44;100200.41;;;4.42;96.17
84055;BME280;74141;51.504;7.122;2024-01-06T07:11:09;100202.22;;;4.38;96.85
84055;BME280;74141;51.504;7.122;2024-01-06T07:13:36;100210.88;;;4.40;96.26
84055;BME280;74141;51.504;7.122;2024-01-06T07:16:02;100210.91;;;4.39;97.43
84055;BME280;74141;51.504;7.122;2024-01-06T07:18:27;100222.22;;;4.38;96.49
84055;BME280;74141;51.504;7.122;2024-01-06T07:20:52;100200.75;;;4.27;96.21
84055;BME280;74141;51.504;7.122;2024-01-06T07:23:17;100225.72;;;4.37;96.97
84055;BME280;74141;51.504;7.122;2024-01-06T07:25:43;100220.63;;;4.31;96.92
84055;BME280;74141;51.504;7.122;2024-01-06T07:28:08;100231.81;;;4.36;96.35
84055;BME280;74141;51.504;7.122;2024-01-06T07:30:34;100230.13;;;4.35;96.92
84055;BME280;74141;51.504;7.122;2024-01-06T07:32:59;100235.38;;;4.33;96.83
84055;BME280;74141;51.504;7.122;2024-01-06T07:35:25;100243.19;;;4.33;96.67
84055;BME280;74141;51.504;7.122;2024-01-06T07:37:50;100246.66;;;4.32;97.33
84055;BME280;74141;51.504;7.122;2024-01-06T07:40:15;100250.16;;;4.33;97.09
84055;BME280;74141;51.504;7.122;2024-01-06T07:42:42;100256.22;;;4.33;97.51
84055;BME280;74141;51.504;7.122;2024-01-06T07:45:07;100263.22;;;4.31;97.98
84055;BME280;74141;51.504;7.122;2024-01-06T07:47:33;100264.91;;;4.32;97.92
84055;BME280;74141;51.504;7.122;2024-01-06T07:49:58;100271.13;;;4.27;97.49
84055;BME280;74141;51.504;7.122;2024-01-06T07:52:23;100264.25;;;4.24;98.24
84055;BME280;74141;51.504;7.122;2024-01-06T07:54:49;100267.84;;;4.18;98.08
84055;BME280;74141;51.504;7.122;2024-01-06T07:57:14;100227.56;;;3.92;98.34
84055;BME280;74141;51.504;7.122;2024-01-06T07:59:39;100273.16;;;4.14;99.04
84055;BME280;74141;51.504;7.122;2024-01-06T08:02:05;100287.06;;;4.13;98.77
84055;BME280;74141;51.504;7.122;2024-01-06T08:04:30;100284.41;;;4.14;99.27
84055;BME280;74141;51.504;7.122;2024-01-06T08:06:56;100286.25;;;4.11;98.97
84055;BME280;74141;51.504;7.122;2024-01-06T08:09:21;100291.47;;;4.11;99.27
84055;BME280;74141;51.504;7.122;2024-01-06T08:11:48;100295.81;;;4.10;98.65
84055;BME280;74141;51.504;7.122;2024-01-06T08:14:14;100303.56;;;4.13;99.17
84055;BME280;74141;51.504;7.122;2024-01-06T08:16:39;100308.75;;;4.15;98.91
84055;BME280;74141;51.504;7.122;2024-01-06T08:19:04;100311.34;;;4.15;99.04
84055;BME280;74141;51.504;7.122;2024-01-06T08:21:30;100315.59;;;4.19;98.03
84055;BME280;74141;51.504;7.122;2024-01-06T08:23:55;100320.00;;;4.18;98.10
84055;BME280;74141;51.504;7.122;2024-01-06T08:26:21;100321.72;;;4.18;98.45
84055;BME280;74141;51.504;7.122;2024-01-06T08:28:46;100331.19;;;4.22;97.41
84055;BME280;74141;51.504;7.122;2024-01-06T08:31:11;100335.56;;;4.22;97.50
84055;BME280;74141;51.504;7.122;2024-01-06T08:33:36;100334.69;;;4.21;98.21
84055;BME280;74141;51.504;7.122;2024-01-06T08:36:02;100342.63;;;4.15;98.38
84055;BME280;74141;51.504;7.122;2024-01-06T08:38:27;100343.53;;;4.14;98.74
84055;BME280;74141;51.504;7.122;2024-01-06T08:40:53;100337.53;;;4.09;98.89
84055;BME280;74141;51.504;7.122;2024-01-06T08:43:18;100354.06;;;4.09;98.54
84055;BME280;74141;51.504;7.122;2024-01-06T08:45:44;100354.97;;;4.05;99.23
84055;BME280;74141;51.504;7.122;2024-01-06T08:48:10;100354.91;;;4.08;99.06
84055;BME280;74141;51.504;7.122;2024-01-06T08:50:37;100362.75;;;4.07;98.80
84055;BME280;74141;51.504;7.122;2024-01-06T08:53:02;100377.59;;;4.05;99.31
84055;BME280;74141;51.504;7.122;2024-01-06T08:55:28;100379.44;;;3.98;99.36
84055;BME280;74141;51.504;7.122;2024-01-06T08:57:53;100381.19;;;3.96;99.76
84055;BME280;74141;51.504;7.122;2024-01-06T09:00:18;100381.38;;;3.89;99.34
84055;BME280;74141;51.504;7.122;2024-01-06T09:02:43;100385.75;;;3.87;99.87
84055;BME280;74141;51.504;7.122;2024-01-06T09:05:09;100393.59;;;3.85;99.88
84055;BME280;74141;51.504;7.122;2024-01-06T09:07:34;100391.00;;;3.84;99.52
84055;BME280;74141;51.504;7.122;2024-01-06T09:09:59;100402.38;;;3.80;100.00
84055;BME280;74141;51.504;7.122;2024-01-06T09:12:24;100411.09;;;3.76;100.00
84055;BME280;74141;51.504;7.122;2024-01-06T09:14:50;100410.28;;;3.74;100.00
84055;BME280;74141;51.504;7.122;2024-01-06T09:17:15;100415.53;;;3.72;99.93
84055;BME280;74141;51.504;7.122;2024-01-06T09:19:41;100421.56;;;3.73;100.00
84055;BME280;74141;51.504;7.122;2024-01-06T09:22:06;100422.56;;;3.66;100.00
84055;BME280;74141;51.504;7.122;2024-01-06T09:24:31;100425.19;;;3.66;100.00
84055;BME280;74141;51.504;7.122;2024-01-06T09:26:58;100424.31;;;3.64;99.96
84055;BME280;74141;51.504;7.122;2024-01-06T09:29:24;100426.06;;;3.65;99.84
84055;BME280;74141;51.504;7.122;2024-01-06T09:31:49;100430.41;;;3.64;100.00
84055;BME280;74141;51.504;7.122;2024-01-06T09:34:14;100432.09;;;3.67;99.73
84055;BME280;74141;51.504;7.122;2024-01-06T09:36:39;100441.69;;;3.65;99.92
84055;BME280;74141;51.504;7.122;2024-01-06T09:39:05;100443.44;;;3.63;100.00
84055;BME280;74141;51.504;7.122;2024-01-06T09:41:31;100446.03;;;3.64;99.69
84055;BME280;74141;51.504;7.122;2024-01-06T09:43:56;100444.28;;;3.66;100.00
84055;BME280;74141;51.504;7.122;2024-01-06T09:46:28;100456.38;;;3.69;99.73
84055;BME280;74141;51.504;7.122;2024-01-06T09:48:56;100450.31;;;3.67;99.69
84055;BME280;74141;51.504;7.122;2024-01-06T09:51:23;100465.03;;;3.72;99.56
84055;BME280;74141;51.504;7.122;2024-01-06T09:54:00;100465.84;;;3.73;99.82
84055;BME280;74141;51.504;7.122;2024-01-06T09:56:27;100467.66;;;3.71;99.29
84055;BME280;74141;51.504;7.122;2024-01-06T09:58:53;100471.16;;;3.67;99.65
84055;BME280;74141;51.504;7.122;2024-01-06T10:01:19;100469.50;;;3.63;99.41
84055;BME280;74141;51.504;7.122;2024-01-06T10:03:44;100471.22;;;3.62;99.82
84055;BME280;74141;51.504;7.122;2024-01-06T10:06:13;100484.31;;;3.61;99.32
84055;BME280;74141;51.504;7.122;2024-01-06T10:08:39;100479.97;;;3.60;99.29
84055;BME280;74141;51.504;7.122;2024-01-06T10:11:07;100484.38;;;3.56;99.46
84055;BME280;74141;51.504;7.122;2024-01-06T10:13:34;100491.34;;;3.54;99.15
84055;BME280;74141;51.504;7.122;2024-01-06T10:16:00;100496.59;;;3.51;98.92
84055;BME280;74141;51.504;7.122;2024-01-06T10:18:27;100499.22;;;3.50;99.23
84055;BME280;74141;51.504;7.122;2024-01-06T10:20:54;100499.22;;;3.50;99.10
84055;BME280;74141;51.504;7.122;2024-01-06T10:23:22;100498.38;;;3.48;99.60
84055;BME280;74141;51.504;7.122;2024-01-06T10:25:47;100503.59;;;3.46;99.71
84055;BME280;74141;51.504;7.122;2024-01-06T10:28:12;100506.22;;;3.45;99.50
84055;BME280;74141;51.504;7.122;2024-01-06T10:30:41;100509.75;;;3.41;98.01
84055;BME280;74141;51.504;7.122;2024-01-06T10:33:10;100501.06;;;3.42;98.69
84055;BME280;74141;51.504;7.122;2024-01-06T10:35:36;100508.06;;;3.40;98.65
84055;BME280;74141;51.504;7.122;2024-01-06T10:38:02;100511.47;;;3.42;98.52
84055;BME280;74141;51.504;7.122;2024-01-06T10:40:28;100511.53;;;3.39;98.59
84055;BME280;74141;51.504;7.122;2024-01-06T10:42:55;100511.56;;;3.36;99.20
84055;BME280;74141;51.504;7.122;2024-01-06T10:45:22;100516.81;;;3.33;98.63
84055;BME280;74141;51.504;7.122;2024-01-06T10:47:49;100516.75;;;3.36;99.39
84055;BME280;74141;51.504;7.122;2024-01-06T10:50:17;100515.94;;;3.35;98.27
84055;BME280;74141;51.504;7.122;2024-01-06T10:52:43;100524.59;;;3.34;98.02
84055;BME280;74141;51.504;7.122;2024-01-06T10:55:09;100513.38;;;3.31;97.75
84055;BME280;74141;51.504;7.122;2024-01-06T10:57:37;100523.84;;;3.28;97.33
84055;BME280;74141;51.504;7.122;2024-01-06T11:00:03;100515.19;;;3.26;97.63
84055;BME280;74141;51.504;7.122;2024-01-06T11:02:31;100523.88;;;3.25;98.09
84055;BME280;74141;51.504;7.122;2024-01-06T11:04:57;100522.19;;;3.21;97.32
84055;BME280;74141;51.504;7.122;2024-01-06T11:07:24;100523.06;;;3.20;98.34
84055;BME280;74141;51.504;7.122;2024-01-06T11:09:56;100517.84;;;3.20;97.36
84055;BME280;74141;51.504;7.122;2024-01-06T11:12:22;100516.09;;;3.22;97.29
84055;BME280;74141;51.504;7.122;2024-01-06T11:14:48;100515.22;;;3.23;97.83
84055;BME280;74141;51.504;7.122;2024-01-06T11:17:49;100519.53;;;3.27;97.49
84055;BME280;74141;51.504;7.122;2024-01-06T11:20:18;100518.63;;;3.28;97.08
84055;BME280;74141;51.504;7.122;2024-01-06T11:22:43;100522.13;;;3.27;96.52
84055;BME280;74141;51.504;7.122;2024-01-06T11:25:15;100497.94;;;3.17;96.63
84055;BME280;74141;51.504;7.122;2024-01-06T11:27:42;100516.09;;;3.23;96.87
84055;BME280;74141;51.504;7.122;2024-01-06T11:30:19;100516.97;;;3.24;97.17
84055;BME280;74141;51.504;7.122;2024-01-06T11:32:44;100524.78;;;3.22;97.52
84055;BME280;74141;51.504;7.122;2024-01-06T11:35:13;100524.88;;;3.16;98.31
84055;BME280;74141;51.504;7.122;2024-01-06T11:40:11;100518.69;;;3.23;98.48
84055;BME280;74141;51.504;7.122;2024-01-06T11:42:45;100522.19;;;3.21;97.86
84055;BME280;74141;51.504;7.122;2024-01-06T11:45:11;100528.38;;;3.12;98.77
84055;BME280;74141;51.504;7.122;2024-01-06T11:47:38;100530.16;;;3.10;98.40
84055;BME280;74141;51.504;7.122;2024-01-06T11:50:05;100531.88;;;3.10;99.57
84055;BME280;74141;51.504;7.122;2024-01-06T11:52:34;100520.66;;;3.05;98.61
84055;BME280;74141;51.504;7.122;2024-01-06T11:55:00;100528.44;;;3.06;98.76
84055;BME280;74141;51.504;7.122;2024-01-06T11:57:26;100520.66;;;3.05;99.45
84055;BME280;74141;51.504;7.122;2024-01-06T11:59:52;100532.84;;;3.03;99.54
84055;BME280;74141;51.504;7.122;2024-01-06T12:02:18;100535.44;;;3.03;100.00
84055;BME280;74141;51.504;7.122;2024-01-06T12:04:53;100531.06;;;3.03;99.77
84055;BME280;74141;51.504;7.122;2024-01-06T12:07:19;100532.84;;;3.01;99.85
84055;BME280;74141;51.504;7.122;2024-01-06T12:09:47;100524.25;;;2.93;99.54
84055;BME280;74141;51.504;7.122;2024-01-06T12:12:15;100539.88;;;2.93;99.96
84055;BME280;74141;51.504;7.122;2024-01-06T12:14:41;100539.84;;;2.95;100.00
84055;BME280;74141;51.504;7.122;2024-01-06T12:17:12;100538.19;;;2.91;100.00
84055;BME280;74141;51.504;7.122;2024-01-06T12:19:39;100546.81;;;2.96;100.00
84055;BME280;74141;51.504;7.122;2024-01-06T12:22:07;100543.34;;;2.94;100.00
84055;BME280;74141;51.504;7.122;2024-01-06T12:24:32;100548.53;;;2.95;100.00
84055;BME280;74141;51.504;7.122;2024-01-06T12:26:58;100549.38;;;2.97;100.00
84055;BME280;74141;51.504;7.122;2024-01-06T12:29:28;100557.19;;;2.97;100.00
84055;BME280;74141;51.504;7.122;2024-01-06T12:31:59;100558.13;;;2.89;99.63
84055;BME280;74141;51.504;7.122;2024-01-06T12:34:24;100549.53;;;2.85;100.00
84055;BME280;74141;51.504;7.122;2024-01-06T12:36:52;100559.03;;;2.86;100.00
84055;BME280;74141;51.504;7.122;2024-01-06T12:39:18;100550.38;;;2.86;100.00
84055;BME280;74141;51.504;7.122;2024-01-06T12:41:43;100552.94;;;2.87;100.00
84055;BME280;74141;51.504;7.122;2024-01-06T12:44:09;100559.03;;;2.88;100.00
84055;BME280;74141;51.504;7.122;2024-01-06T12:46:35;100558.19;;;2.83;100.00
84055;BME280;74141;51.504;7.122;2024-01-06T12:49:00;100549.63;;;2.76;99.95
84055;BME280;74141;51.504;7.122;2024-01-06T12:51:26;100562.66;;;2.73;99.82
84055;BME280;74141;51.504;7.122;2024-01-06T12:53:51;100565.31;;;2.67;100.00
84055;BME280;74141;51.504;7.122;2024-01-06T12:56:17;100561.88;;;2.62;100.00
84055;BME280;74141;51.504;7.122;2024-01-06T12:58:42;100565.38;;;2.61;100.00
84055;BME280;74141;51.504;7.122;2024-01-06T13:01:09;100571.44;;;2.65;100.00